createdAt,value
2023-05-24T00:01:44.067Z,13.40
2023-05-24T00:04:13.100Z,13.60
2023-05-24T00:06:43.058Z,13.30
2023-05-24T00:09:13.729Z,13.10
2023-05-24T00:11:42.487Z,10.00
2023-05-24T00:14:11.291Z,9.50
2023-05-24T00:16:40.551Z,9.70
2023-05-24T00:19:11.704Z,10.50
2023-05-24T00:21:40.395Z,11.30
2023-05-24T00:24:11.655Z,8.30
2023-05-24T00:26:40.438Z,8.80
2023-05-24T00:29:09.546Z,8.20
2023-05-24T00:31:39.764Z,8.50
2023-05-24T00:34:08.636Z,7.30
2023-05-24T00:36:38.086Z,8.50
2023-05-24T00:39:06.953Z,6.90
2023-05-24T00:41:35.931Z,5.90
2023-05-24T00:44:04.606Z,5.20
2023-05-24T00:46:35.073Z,4.70
2023-05-24T00:49:04.642Z,4.90
2023-05-24T00:51:34.339Z,5.60
2023-05-24T00:54:03.352Z,5.60
2023-05-24T00:56:32.137Z,3.80
2023-05-24T00:59:02.359Z,5.30
2023-05-24T01:01:31.563Z,4.00
2023-05-24T01:04:00.687Z,7.70
2023-05-24T01:06:30.978Z,4.70
2023-05-24T01:09:15.121Z,4.00
2023-05-24T01:12:08.229Z,4.90
2023-05-24T01:14:54.488Z,4.20
2023-05-24T01:17:43.193Z,4.80
2023-05-24T01:20:13.608Z,5.20
2023-05-24T01:23:32.219Z,6.20
2023-05-24T01:26:20.995Z,6.70
2023-05-24T01:28:50.065Z,4.10
2023-05-24T01:31:20.058Z,5.50
2023-05-24T01:33:51.452Z,7.40
2023-05-24T01:36:21.763Z,12.50
2023-05-24T01:38:51.593Z,5.70
2023-05-24T01:41:46.106Z,5.80
2023-05-24T01:44:29.919Z,6.20
2023-05-24T01:47:05.555Z,7.50
2023-05-24T01:49:38.324Z,7.90
2023-05-24T01:52:12.118Z,6.30
2023-05-24T01:54:45.225Z,8.40
2023-05-24T01:57:14.104Z,8.00
2023-05-24T01:59:44.038Z,8.60
2023-05-24T02:02:13.241Z,7.20
2023-05-24T02:04:42.756Z,10.50
2023-05-24T02:07:12.675Z,9.80
2023-05-24T02:09:41.542Z,7.10
2023-05-24T02:12:11.041Z,8.90
2023-05-24T02:14:43.038Z,7.00
2023-05-24T02:17:11.916Z,8.70
2023-05-24T02:19:40.911Z,8.50
2023-05-24T02:22:11.011Z,8.00
2023-05-24T02:24:40.825Z,8.50
2023-05-24T02:27:09.508Z,7.40
2023-05-24T02:29:38.417Z,10.60
2023-05-24T02:32:07.292Z,7.30
2023-05-24T02:34:36.293Z,9.40
2023-05-24T02:37:05.396Z,8.50
2023-05-24T02:39:34.393Z,9.80
2023-05-24T02:42:05.205Z,9.70
2023-05-24T02:44:33.788Z,9.00
2023-05-24T02:47:02.790Z,9.90
2023-05-24T02:49:31.565Z,9.20
2023-05-24T02:52:00.527Z,9.20
2023-05-24T02:54:29.171Z,9.70
2023-05-24T02:56:59.530Z,8.70
2023-05-24T02:59:28.665Z,8.90
2023-05-24T03:01:57.570Z,10.20
2023-05-24T03:04:27.168Z,10.20
2023-05-24T03:06:56.773Z,10.20
2023-05-24T03:09:25.792Z,8.00
2023-05-24T03:11:54.961Z,8.00
2023-05-24T03:14:25.401Z,8.90
2023-05-24T03:16:54.183Z,8.60
2023-05-24T03:19:23.068Z,9.90
2023-05-24T03:21:53.097Z,8.00
2023-05-24T03:24:21.876Z,8.90
2023-05-24T03:26:51.102Z,8.00
2023-05-24T03:29:19.862Z,8.80
2023-05-24T03:31:49.406Z,9.00
2023-05-24T03:34:18.460Z,8.20
2023-05-24T03:36:47.277Z,9.70
2023-05-24T03:39:16.355Z,7.20
2023-05-24T03:42:02.781Z,6.70
2023-05-24T03:44:33.192Z,7.60
2023-05-24T03:47:02.185Z,6.70
2023-05-24T03:49:32.593Z,8.40
2023-05-24T03:52:02.028Z,7.40
2023-05-24T03:54:31.598Z,7.90
2023-05-24T03:57:00.390Z,9.70
2023-05-24T03:59:31.178Z,8.20
2023-05-24T04:02:00.106Z,8.50
2023-05-24T04:04:30.027Z,7.70
2023-05-24T04:06:59.448Z,8.20
2023-05-24T04:09:28.216Z,8.30
2023-05-24T04:11:57.865Z,6.70
2023-05-24T04:14:27.127Z,7.60
2023-05-24T04:16:56.025Z,7.90
2023-05-24T04:19:24.931Z,8.60
2023-05-24T04:21:53.708Z,6.60
2023-05-24T04:24:22.586Z,7.80
2023-05-24T04:26:52.305Z,10.90
2023-05-24T04:29:21.418Z,7.00
2023-05-24T04:31:50.642Z,7.60
2023-05-24T04:34:22.752Z,7.40
2023-05-24T04:36:53.615Z,8.50
2023-05-24T04:39:22.685Z,7.80
2023-05-24T04:41:53.349Z,6.80
2023-05-24T04:44:22.014Z,10.00
2023-05-24T04:46:51.472Z,6.90
2023-05-24T04:49:20.699Z,8.90
2023-05-24T04:51:49.596Z,9.50
2023-05-24T04:54:18.895Z,7.80
2023-05-24T04:56:48.219Z,7.30
2023-05-24T04:59:17.085Z,6.90
2023-05-24T05:01:46.045Z,7.70
2023-05-24T05:04:15.028Z,8.40
2023-05-24T05:06:45.090Z,6.00
2023-05-24T05:09:15.140Z,7.20
2023-05-24T05:11:44.215Z,9.10
2023-05-24T05:14:15.015Z,6.70
2023-05-24T05:16:44.167Z,7.60
2023-05-24T05:19:13.156Z,6.50
2023-05-24T05:21:42.435Z,7.00
2023-05-24T05:24:11.227Z,7.90
2023-05-24T05:26:40.426Z,6.90
2023-05-24T05:29:09.714Z,6.50
2023-05-24T05:31:40.057Z,8.60
2023-05-24T05:34:10.441Z,9.80
2023-05-24T05:36:41.523Z,8.80
2023-05-24T05:39:10.702Z,8.10
2023-05-24T05:41:40.426Z,9.50
2023-05-24T05:44:09.649Z,6.60
2023-05-24T05:46:39.688Z,8.10
2023-05-24T05:49:10.057Z,7.40
2023-05-24T05:51:40.392Z,8.80
2023-05-24T05:54:15.069Z,9.70
2023-05-24T05:56:48.420Z,9.00
2023-05-24T05:59:17.920Z,9.00
2023-05-24T06:01:48.406Z,9.10
2023-05-24T06:04:19.656Z,11.90
2023-05-24T06:06:52.980Z,11.30
2023-05-24T06:09:22.168Z,9.20
2023-05-24T06:11:52.113Z,10.30
2023-05-24T06:14:22.783Z,10.60
2023-05-24T06:16:55.147Z,10.10
2023-05-24T06:19:25.840Z,10.20
2023-05-24T06:21:55.138Z,10.40
2023-05-24T06:24:25.956Z,13.20
2023-05-24T06:26:55.563Z,9.60
2023-05-24T06:29:25.943Z,14.00
2023-05-24T06:31:55.864Z,11.60
2023-05-24T06:34:25.203Z,11.90
2023-05-24T06:36:54.302Z,10.40
2023-05-24T06:39:25.853Z,9.40
2023-05-24T06:41:55.468Z,9.90
2023-05-24T06:44:34.097Z,9.40
2023-05-24T06:47:03.250Z,12.80
2023-05-24T06:49:34.620Z,12.50
2023-05-24T06:52:05.352Z,16.80
2023-05-24T06:54:35.191Z,11.10
2023-05-24T06:57:05.201Z,9.80
2023-05-24T06:59:34.905Z,15.00
2023-05-24T07:02:05.327Z,16.60
2023-05-24T07:04:34.753Z,12.40
2023-05-24T07:07:04.578Z,9.70
2023-05-24T07:09:33.950Z,12.20
2023-05-24T07:12:03.157Z,14.00
2023-05-24T07:14:33.351Z,9.00
2023-05-24T07:17:03.446Z,12.40
2023-05-24T07:19:34.566Z,13.30
2023-05-24T07:22:03.646Z,11.20
2023-05-24T07:24:35.781Z,13.40
2023-05-24T07:27:08.634Z,14.40
2023-05-24T07:29:39.360Z,13.80
2023-05-24T07:32:14.461Z,10.20
2023-05-24T07:34:46.398Z,15.10
2023-05-24T07:37:17.356Z,13.40
2023-05-24T07:39:48.280Z,12.20
2023-05-24T07:42:18.309Z,11.10
2023-05-24T07:44:47.429Z,14.20
2023-05-24T07:47:16.696Z,13.50
2023-05-24T07:49:46.935Z,15.50
2023-05-24T07:52:16.028Z,11.00
2023-05-24T07:54:45.432Z,13.50
2023-05-24T07:57:15.525Z,13.80
2023-05-24T07:59:44.618Z,12.30
2023-05-24T08:02:14.149Z,14.30
2023-05-24T08:04:50.084Z,11.60
2023-05-24T08:07:20.675Z,12.10
2023-05-24T08:09:50.029Z,13.00
2023-05-24T08:12:18.917Z,13.30
2023-05-24T08:14:48.733Z,13.00
2023-05-24T08:17:17.731Z,11.20
2023-05-24T08:19:46.712Z,13.60
2023-05-24T08:22:16.516Z,15.30
2023-05-24T08:24:45.953Z,14.20
2023-05-24T08:27:15.330Z,13.00
2023-05-24T08:29:44.436Z,11.90
2023-05-24T08:32:14.042Z,14.30
2023-05-24T08:34:43.526Z,11.10
2023-05-24T08:37:15.545Z,14.90
2023-05-24T08:39:45.258Z,14.40
2023-05-24T08:42:15.227Z,13.40
2023-05-24T08:45:10.198Z,13.80
2023-05-24T08:47:40.212Z,12.00
2023-05-24T08:50:10.244Z,11.30
2023-05-24T08:52:40.266Z,13.90
2023-05-24T08:55:10.922Z,12.90
2023-05-24T08:57:41.816Z,11.80
2023-05-24T09:00:13.472Z,13.20
2023-05-24T09:02:44.258Z,12.70
2023-05-24T09:05:17.942Z,10.70
2023-05-24T09:07:47.302Z,11.40
2023-05-24T09:10:16.955Z,12.00
2023-05-24T09:12:51.763Z,11.00
2023-05-24T09:15:20.871Z,12.80
2023-05-24T09:17:49.997Z,9.60
2023-05-24T09:20:19.796Z,11.20
2023-05-24T09:22:52.531Z,11.10
2023-05-24T09:25:22.500Z,9.90
2023-05-24T09:27:53.129Z,10.80
2023-05-24T09:30:22.929Z,11.10
2023-05-24T09:32:58.455Z,9.30
2023-05-24T09:35:29.244Z,10.50
2023-05-24T09:38:00.654Z,10.10
2023-05-24T09:40:30.459Z,13.00
2023-05-24T09:43:10.177Z,10.40
2023-05-24T09:45:47.190Z,9.10
2023-05-24T09:48:20.882Z,9.40
2023-05-24T09:51:19.862Z,11.80
2023-05-24T09:53:49.928Z,11.70
2023-05-24T09:56:19.833Z,10.00
2023-05-24T09:58:48.709Z,9.60
2023-05-24T10:01:19.274Z,11.70
2023-05-24T10:03:58.588Z,12.20
2023-05-24T10:06:30.338Z,11.20
2023-05-24T10:09:00.752Z,11.70
2023-05-24T10:11:34.066Z,10.70
2023-05-24T10:14:06.119Z,15.30
2023-05-24T10:16:35.272Z,10.20
2023-05-24T10:19:05.447Z,9.80
2023-05-24T10:21:38.027Z,13.30
2023-05-24T10:24:10.389Z,9.60
2023-05-24T10:26:40.094Z,8.10
2023-05-24T10:29:12.103Z,11.40
2023-05-24T10:31:43.101Z,11.00
2023-05-24T10:34:12.550Z,10.80
2023-05-24T10:36:41.484Z,10.60
2023-05-24T10:39:12.540Z,10.80
2023-05-24T10:41:45.202Z,10.20
2023-05-24T10:44:15.552Z,10.90
2023-05-24T10:47:07.573Z,10.00
2023-05-24T10:49:37.928Z,10.70
2023-05-24T10:52:11.092Z,12.20
2023-05-24T10:54:49.664Z,11.10
2023-05-24T10:57:28.331Z,10.50
2023-05-24T10:59:58.013Z,10.90
2023-05-24T11:02:36.239Z,11.10
2023-05-24T11:05:06.690Z,13.00
2023-05-24T11:07:43.396Z,12.20
2023-05-24T11:10:20.420Z,10.20
2023-05-24T11:12:59.046Z,11.20
2023-05-24T11:15:29.101Z,12.40
2023-05-24T11:18:16.814Z,17.90
2023-05-24T11:20:47.762Z,12.30
2023-05-24T11:23:18.356Z,12.60
2023-05-24T11:25:51.036Z,10.50
2023-05-24T11:28:20.627Z,13.80
2023-05-24T11:30:49.647Z,11.90
2023-05-24T11:33:20.586Z,17.50
2023-05-24T11:35:55.104Z,13.90
2023-05-24T11:38:25.013Z,10.60
2023-05-24T11:40:54.864Z,11.10
2023-05-24T11:43:24.013Z,14.10
2023-05-24T11:45:53.760Z,8.80
2023-05-24T11:48:24.685Z,10.60
2023-05-24T11:50:54.227Z,10.50
2023-05-24T11:53:23.887Z,11.00
2023-05-24T11:55:55.023Z,12.90
2023-05-24T11:58:25.341Z,12.30
2023-05-24T12:00:54.560Z,13.20
2023-05-24T12:03:24.144Z,13.10
2023-05-24T12:05:57.855Z,14.40
2023-05-24T12:08:26.931Z,13.70
2023-05-24T12:10:55.931Z,11.30
2023-05-24T12:13:26.442Z,13.90
2023-05-24T12:15:57.102Z,13.20
2023-05-24T12:18:27.278Z,11.20
2023-05-24T12:20:56.534Z,14.30
2023-05-24T12:23:30.157Z,11.50
2023-05-24T12:26:03.534Z,12.40
2023-05-24T12:28:39.640Z,11.70
2023-05-24T12:31:10.044Z,14.10
2023-05-24T12:33:40.312Z,11.10
2023-05-24T12:36:10.981Z,12.20
2023-05-24T12:38:40.576Z,14.10
2023-05-24T12:41:13.736Z,12.00
2023-05-24T12:43:45.008Z,12.70
2023-05-24T12:46:14.936Z,10.60
2023-05-24T12:48:44.589Z,8.20
2023-05-24T12:51:14.041Z,10.90
2023-05-24T12:53:43.846Z,10.30
2023-05-24T12:56:12.862Z,8.80
2023-05-24T12:58:44.016Z,11.50
2023-05-24T13:01:13.195Z,13.00
2023-05-24T13:03:42.656Z,11.20
2023-05-24T13:06:11.575Z,10.70
2023-05-24T13:08:41.266Z,10.60
2023-05-24T13:11:10.496Z,10.60
2023-05-24T13:13:40.165Z,9.70
2023-05-24T13:16:11.056Z,8.90
2023-05-24T13:18:40.870Z,10.50
2023-05-24T13:21:12.116Z,12.10
2023-05-24T13:23:43.956Z,10.90
2023-05-24T13:26:13.557Z,10.60
2023-05-24T13:28:58.652Z,10.90
2023-05-24T13:31:32.286Z,11.10
2023-05-24T13:34:01.849Z,9.00
2023-05-24T13:36:30.966Z,7.90
2023-05-24T13:41:33.699Z,10.30
2023-05-24T13:44:03.580Z,9.20
2023-05-24T13:46:32.673Z,9.30
2023-05-24T13:49:03.016Z,6.90
2023-05-24T13:51:32.798Z,9.80
2023-05-24T13:54:02.494Z,10.10
2023-05-24T13:56:33.412Z,8.70
2023-05-24T13:59:04.055Z,9.40
2023-05-24T14:01:34.206Z,10.00
2023-05-24T14:04:04.577Z,9.90
2023-05-24T14:06:34.313Z,10.70
2023-05-24T14:09:03.630Z,9.60
2023-05-24T14:11:32.958Z,9.70
2023-05-24T14:16:35.378Z,10.20
2023-05-24T14:19:05.247Z,11.50
2023-05-24T14:21:37.286Z,9.30
2023-05-24T14:24:06.271Z,8.70
2023-05-24T14:26:35.469Z,9.50
2023-05-24T14:29:07.641Z,11.40
2023-05-24T14:31:42.676Z,9.50
2023-05-24T14:34:12.588Z,9.10
2023-05-24T14:36:43.567Z,7.80
2023-05-24T14:39:13.245Z,9.10
2023-05-24T14:41:42.916Z,11.00
2023-05-24T14:44:11.849Z,8.70
2023-05-24T14:46:41.782Z,10.00
2023-05-24T14:49:11.056Z,9.50
2023-05-24T14:51:40.244Z,10.10
2023-05-24T14:54:11.903Z,11.50
2023-05-24T14:56:41.702Z,10.70
2023-05-24T14:59:10.399Z,14.10
2023-05-24T15:01:39.708Z,9.70
2023-05-24T15:04:08.792Z,10.30
2023-05-24T15:06:38.129Z,9.30
2023-05-24T15:09:07.393Z,12.50
2023-05-24T15:11:37.407Z,9.90
2023-05-24T15:14:06.826Z,9.70
2023-05-24T15:16:37.640Z,9.50
2023-05-24T15:19:06.945Z,9.30
2023-05-24T15:21:37.455Z,8.70
2023-05-24T15:24:07.191Z,9.80
2023-05-24T15:26:35.882Z,10.10
2023-05-24T15:29:05.295Z,9.40
2023-05-24T15:34:28.884Z,9.50
2023-05-24T15:36:58.267Z,8.00
2023-05-24T15:39:27.579Z,10.50
2023-05-24T15:41:57.480Z,9.70
2023-05-24T15:44:26.505Z,9.10
2023-05-24T15:46:55.672Z,13.50
2023-05-24T15:49:25.291Z,10.10
2023-05-24T15:54:26.603Z,9.30
2023-05-24T15:56:55.228Z,9.40
2023-05-24T15:59:24.117Z,7.50
2023-05-24T16:01:53.470Z,9.90
2023-05-24T16:04:22.330Z,11.00
2023-05-24T16:06:51.732Z,14.20
2023-05-24T16:09:21.937Z,12.00
2023-05-24T16:11:55.316Z,12.10
2023-05-24T16:14:24.846Z,10.10
2023-05-24T16:17:17.460Z,10.00
2023-05-24T16:19:50.031Z,10.30
2023-05-24T16:22:19.281Z,8.00
2023-05-24T16:24:51.531Z,9.30
2023-05-24T16:27:20.747Z,11.40
2023-05-24T16:29:49.932Z,9.30
2023-05-24T16:32:18.944Z,10.30
2023-05-24T16:34:56.874Z,10.40
2023-05-24T16:37:26.938Z,8.70
2023-05-24T16:39:55.948Z,8.90
2023-05-24T16:42:25.246Z,8.40
2023-05-24T16:44:54.127Z,8.80
2023-05-24T16:47:23.286Z,8.50
2023-05-24T16:49:53.195Z,9.10
2023-05-24T16:52:21.709Z,11.00
2023-05-24T16:54:50.955Z,8.80
2023-05-24T16:57:20.420Z,9.60
2023-05-24T16:59:50.820Z,11.70
2023-05-24T17:02:19.636Z,8.00
2023-05-24T17:04:50.993Z,7.70
2023-05-24T17:07:20.280Z,9.20
2023-05-24T17:09:51.599Z,8.00
2023-05-24T17:12:22.705Z,8.30
2023-05-24T17:14:52.200Z,8.50
2023-05-24T17:17:23.108Z,6.40
2023-05-24T17:19:53.647Z,10.00
2023-05-24T17:22:23.090Z,7.00
2023-05-24T17:24:52.053Z,7.70
2023-05-24T17:27:22.521Z,8.30
2023-05-24T17:29:52.784Z,9.70
2023-05-24T17:32:21.982Z,9.00
2023-05-24T17:34:51.314Z,9.60
2023-05-24T17:37:21.940Z,11.20
2023-05-24T17:39:53.318Z,9.80
2023-05-24T17:42:23.000Z,9.00
2023-05-24T17:44:52.554Z,9.40
2023-05-24T17:47:22.677Z,8.60
2023-05-24T17:49:53.585Z,9.70
2023-05-24T17:52:22.455Z,10.50
2023-05-24T17:54:51.744Z,10.50
2023-05-24T17:57:22.295Z,9.80
2023-05-24T17:59:51.718Z,9.20
2023-05-24T18:02:20.452Z,10.00
2023-05-24T18:04:53.339Z,8.30
2023-05-24T18:07:22.018Z,9.60
2023-05-24T18:09:52.139Z,9.30
2023-05-24T18:12:21.245Z,11.30
2023-05-24T18:14:51.169Z,9.10
2023-05-24T18:17:20.151Z,8.30
2023-05-24T18:19:48.860Z,10.20
2023-05-24T18:22:17.944Z,8.10
2023-05-24T18:24:47.024Z,12.30
2023-05-24T18:27:15.706Z,8.80
2023-05-24T18:29:45.615Z,8.80
2023-05-24T18:32:14.446Z,8.40
2023-05-24T18:34:43.327Z,9.40
2023-05-24T18:37:12.408Z,9.60
2023-05-24T18:39:41.683Z,7.60
2023-05-24T18:42:13.064Z,7.40
2023-05-24T18:44:41.728Z,10.20
2023-05-24T18:47:11.430Z,7.80
2023-05-24T18:49:40.232Z,7.20
2023-05-24T18:52:09.442Z,7.10
2023-05-24T18:54:38.533Z,9.50
2023-05-24T18:57:08.970Z,7.10
2023-05-24T18:59:37.841Z,8.20
2023-05-24T19:02:07.293Z,9.00
2023-05-24T19:04:36.242Z,9.00
2023-05-24T19:07:05.917Z,9.60
2023-05-24T19:09:35.131Z,9.20
2023-05-24T19:12:05.050Z,9.10
2023-05-24T19:14:35.178Z,8.50
2023-05-24T19:17:04.548Z,8.90
2023-05-24T19:19:33.773Z,7.70
2023-05-24T19:22:02.670Z,8.10
2023-05-24T19:24:31.809Z,7.20
2023-05-24T19:27:02.386Z,11.80
2023-05-24T19:29:31.411Z,8.20
2023-05-24T19:32:00.392Z,8.40
2023-05-24T19:34:31.953Z,8.40
2023-05-24T19:37:01.248Z,9.40
2023-05-24T19:39:30.433Z,10.10
2023-05-24T19:41:59.314Z,13.50
2023-05-24T19:44:28.247Z,12.80
2023-05-24T19:46:57.424Z,10.70
2023-05-24T19:49:26.307Z,10.00
2023-05-24T19:51:55.491Z,10.70
2023-05-24T19:54:24.598Z,9.30
2023-05-24T19:56:55.521Z,14.60
2023-05-24T19:59:24.312Z,12.70
2023-05-24T20:01:53.577Z,11.40
2023-05-24T20:04:22.604Z,9.80
2023-05-24T20:06:53.773Z,10.70
2023-05-24T20:09:22.657Z,11.30
2023-05-24T20:11:52.047Z,10.50
2023-05-24T20:14:21.954Z,11.80
2023-05-24T20:16:50.879Z,9.00
2023-05-24T20:19:21.987Z,10.80
2023-05-24T20:21:50.796Z,10.00
2023-05-24T20:24:19.472Z,9.70
2023-05-24T20:26:48.795Z,10.40
2023-05-24T20:29:17.670Z,12.20
2023-05-24T20:31:47.630Z,10.50
2023-05-24T20:34:16.459Z,9.90
2023-05-24T20:36:45.380Z,13.40
2023-05-24T20:39:14.270Z,11.00
2023-05-24T20:41:43.159Z,12.50
2023-05-24T20:44:12.129Z,12.40
2023-05-24T20:46:41.651Z,10.40
2023-05-24T20:49:10.228Z,12.40
2023-05-24T20:51:38.988Z,12.80
2023-05-24T20:54:08.010Z,11.10
2023-05-24T20:56:37.011Z,14.40
2023-05-24T20:59:06.089Z,10.60
2023-05-24T21:01:34.818Z,8.80
2023-05-24T21:04:04.380Z,14.60
2023-05-24T21:06:34.251Z,11.40
2023-05-24T21:09:04.035Z,14.00
2023-05-24T21:11:33.500Z,12.90
2023-05-24T21:14:02.421Z,12.10
2023-05-24T21:16:33.438Z,11.80
2023-05-24T21:19:02.549Z,11.40
2023-05-24T21:21:31.218Z,13.10
2023-05-24T21:24:00.228Z,12.60
2023-05-24T21:26:29.212Z,16.50
2023-05-24T21:28:58.139Z,11.70
2023-05-24T21:31:29.720Z,13.60
2023-05-24T21:33:58.963Z,13.40
2023-05-24T21:36:27.737Z,13.40
2023-05-24T21:38:57.468Z,12.40
2023-05-24T21:41:27.289Z,14.70
2023-05-24T21:43:56.066Z,13.10
2023-05-24T21:46:25.004Z,17.00
2023-05-24T21:48:53.845Z,15.60
2023-05-24T21:51:22.921Z,15.10
2023-05-24T21:53:52.867Z,13.30
2023-05-24T21:56:21.928Z,15.80
2023-05-24T21:58:50.814Z,17.50
2023-05-24T22:01:19.707Z,15.70
2023-05-24T22:03:48.835Z,15.10
2023-05-24T22:06:17.708Z,12.90
2023-05-24T22:08:46.577Z,14.60
2023-05-24T22:11:15.295Z,14.00
2023-05-24T22:13:44.291Z,14.70
2023-05-24T22:16:13.057Z,19.00
2023-05-24T22:18:41.846Z,16.00
2023-05-24T22:21:10.547Z,15.70
2023-05-24T22:23:39.624Z,13.50
2023-05-24T22:26:08.423Z,16.00
2023-05-24T22:28:53.817Z,17.20
2023-05-24T22:31:24.310Z,18.70
2023-05-24T22:33:53.009Z,18.10
2023-05-24T22:36:21.988Z,17.10
2023-05-24T22:38:50.910Z,16.20
2023-05-24T22:41:19.990Z,14.90
2023-05-24T22:43:48.773Z,14.80
2023-05-24T22:46:17.562Z,17.80
2023-05-24T22:48:46.446Z,15.30
2023-05-24T22:51:15.393Z,17.60
2023-05-24T22:53:44.353Z,17.40
2023-05-24T22:56:13.324Z,16.50
2023-05-24T22:58:42.229Z,18.20
2023-05-24T23:01:12.104Z,18.10
2023-05-24T23:03:41.247Z,19.00
2023-05-24T23:06:12.488Z,21.90
2023-05-24T23:08:41.266Z,15.10
2023-05-24T23:11:11.391Z,17.60
2023-05-24T23:13:42.852Z,19.00
2023-05-24T23:16:18.388Z,17.30
2023-05-24T23:18:47.290Z,18.90
2023-05-24T23:21:17.072Z,15.60
2023-05-24T23:23:46.807Z,19.40
2023-05-24T23:26:15.966Z,20.30
2023-05-24T23:28:45.997Z,17.40
2023-05-24T23:31:15.242Z,15.70
2023-05-24T23:33:44.003Z,14.80
2023-05-24T23:36:12.786Z,16.70
2023-05-24T23:38:41.457Z,20.50
2023-05-24T23:41:10.355Z,20.60
2023-05-24T23:43:38.936Z,21.70
2023-05-24T23:46:08.648Z,17.80
2023-05-24T23:48:37.130Z,18.90
2023-05-24T23:51:07.820Z,19.60
2023-05-24T23:53:36.857Z,16.00
2023-05-24T23:56:05.535Z,16.70
2023-05-24T23:58:34.524Z,19.70
